OGG weather

Kahului Airport
Kahului, Hawaii, United States

Public forecast

Using degrees Fahrenheit for public forecast. Weather courtesy of forecast.io.

Current aviation weather report (METAR) for Kahului Airport

Retrieved 2019/11/22 06:54 UTC (9 minutes ago):

PHOG 220654Z 05011KT 10SM FEW050 BKN090 24/21 A3002

Aviation forecast (TAF) for Kahului Airport

Retrieved 2019/11/22 06:36 UTC (27 minutes ago):

TAF PHOG 220535Z 2206/2306 04015G23KT P6SM VCSH SCT030 SCT050 TEMPO 2206/2210 4SM SHRA BR SCT020 BKN045 FM222000 06024G32KT P6SM FEW030 SCT050 FM230400 06015G23KT P6SM VCSH SCT030 BKN050 AMD LTD TO VIS AND WIND 2209/2216